Harker Heights, Texas
Current Conditions -  °F | °C
As of 11:55 PM on Saturday 20 Dec 2014 (Local Time) from KILE Reporting Station
Overcast Overcast  
Wind Chill: 48°   Ceiling: 800
Heat Index: 48°   Visibility: 7mi
Dew Point: 43°   Wind: 3mph
Humidity: 82%   Direction: 100°E
Pressure: 30.16"   Gusts: NA
Location:  31.09°N, 97.66°W
Report Text: KILE 210555Z AUTO 10003KT 7SM BKN008 OVC022 09/06 A3016 RMK AO1 10100 20090 401100080 57003
Loading
Personal Weather Stations






























Interactive Weather Map New forecast layout! Learn more

10-Day Weather Forecast

Advertisements
Track Severe Weather on mobile